sensor_id;sensor_type;location;lat;lon;timestamp;P1;P2;P0
69123;PMS5003;56232;53.384;-2.732;2022-07-09T00:00:23;9;9;
69123;PMS5003;56232;53.384;-2.732;2022-07-09T00:02:49;8;8;
69123;PMS5003;56232;53.384;-2.732;2022-07-09T00:05:14;10;9;
69123;PMS5003;56232;53.384;-2.732;2022-07-09T00:07:40;9;9;
69123;PMS5003;56232;53.384;-2.732;2022-07-09T00:10:06;12;11;
69123;PMS5003;56232;53.384;-2.732;2022-07-09T00:12:31;9;8;
69123;PMS5003;56232;53.384;-2.732;2022-07-09T00:14:57;10;10;
69123;PMS5003;56232;53.384;-2.732;2022-07-09T00:17:22;8;8;
69123;PMS5003;56232;53.384;-2.732;2022-07-09T00:19:49;8;7;
69123;PMS5003;56232;53.384;-2.732;2022-07-09T00:22:13;10;10;
69123;PMS5003;56232;53.384;-2.732;2022-07-09T00:24:39;9;8;
69123;PMS5003;56232;53.384;-2.732;2022-07-09T00:27:05;6;6;
69123;PMS5003;56232;53.384;-2.732;2022-07-09T00:29:30;9;8;
69123;PMS5003;56232;53.384;-2.732;2022-07-09T00:31:55;10;9;
69123;PMS5003;56232;53.384;-2.732;2022-07-09T00:34:21;10;10;
69123;PMS5003;56232;53.384;-2.732;2022-07-09T00:36:47;9;9;
69123;PMS5003;56232;53.384;-2.732;2022-07-09T00:39:12;9;9;
69123;PMS5003;56232;53.384;-2.732;2022-07-09T00:41:38;9;7;
69123;PMS5003;56232;53.384;-2.732;2022-07-09T00:44:04;9;9;
69123;PMS5003;56232;53.384;-2.732;2022-07-09T00:46:29;9;8;
69123;PMS5003;56232;53.384;-2.732;2022-07-09T00:48:55;10;9;
69123;PMS5003;56232;53.384;-2.732;2022-07-09T00:51:20;12;12;
69123;PMS5003;56232;53.384;-2.732;2022-07-09T00:53:46;9;9;
69123;PMS5003;56232;53.384;-2.732;2022-07-09T00:56:12;11;10;
69123;PMS5003;56232;53.384;-2.732;2022-07-09T00:58:37;12;12;
69123;PMS5003;56232;53.384;-2.732;2022-07-09T01:01:03;13;11;
69123;PMS5003;56232;53.384;-2.732;2022-07-09T01:03:28;11;11;
69123;PMS5003;56232;53.384;-2.732;2022-07-09T01:05:54;9;9;
69123;PMS5003;56232;53.384;-2.732;2022-07-09T01:08:19;9;8;
69123;PMS5003;56232;53.384;-2.732;2022-07-09T01:10:45;10;10;
69123;PMS5003;56232;53.384;-2.732;2022-07-09T01:13:11;11;10;
69123;PMS5003;56232;53.384;-2.732;2022-07-09T01:15:37;9;9;
69123;PMS5003;56232;53.384;-2.732;2022-07-09T01:18:02;14;13;
69123;PMS5003;56232;53.384;-2.732;2022-07-09T01:20:28;11;10;
69123;PMS5003;56232;53.384;-2.732;2022-07-09T01:22:53;10;9;
69123;PMS5003;56232;53.384;-2.732;2022-07-09T01:25:18;13;12;
69123;PMS5003;56232;53.384;-2.732;2022-07-09T01:27:44;8;8;
69123;PMS5003;56232;53.384;-2.732;2022-07-09T01:30:10;12;11;
69123;PMS5003;56232;53.384;-2.732;2022-07-09T01:32:35;10;10;
69123;PMS5003;56232;53.384;-2.732;2022-07-09T01:35:00;11;10;
69123;PMS5003;56232;53.384;-2.732;2022-07-09T01:37:26;12;12;
69123;PMS5003;56232;53.384;-2.732;2022-07-09T01:39:51;10;9;
69123;PMS5003;56232;53.384;-2.732;2022-07-09T01:42:17;13;11;
69123;PMS5003;56232;53.384;-2.732;2022-07-09T01:44:43;11;10;
69123;PMS5003;56232;53.384;-2.732;2022-07-09T01:47:08;10;10;
69123;PMS5003;56232;53.384;-2.732;2022-07-09T01:49:33;11;11;
69123;PMS5003;56232;53.384;-2.732;2022-07-09T01:51:59;14;13;
69123;PMS5003;56232;53.384;-2.732;2022-07-09T01:54:25;13;13;
69123;PMS5003;56232;53.384;-2.732;2022-07-09T01:56:50;13;13;
69123;PMS5003;56232;53.384;-2.732;2022-07-09T01:59:16;16;15;
69123;PMS5003;56232;53.384;-2.732;2022-07-09T02:01:41;14;14;
69123;PMS5003;56232;53.384;-2.732;2022-07-09T02:04:06;14;13;
69123;PMS5003;56232;53.384;-2.732;2022-07-09T02:06:31;15;15;
69123;PMS5003;56232;53.384;-2.732;2022-07-09T02:08:57;12;12;
69123;PMS5003;56232;53.384;-2.732;2022-07-09T02:11:23;12;12;
69123;PMS5003;56232;53.384;-2.732;2022-07-09T02:13:48;15;14;
69123;PMS5003;56232;53.384;-2.732;2022-07-09T02:16:14;17;16;
69123;PMS5003;56232;53.384;-2.732;2022-07-09T02:18:39;18;15;
69123;PMS5003;56232;53.384;-2.732;2022-07-09T02:21:04;15;14;
69123;PMS5003;56232;53.384;-2.732;2022-07-09T02:23:30;15;14;
69123;PMS5003;56232;53.384;-2.732;2022-07-09T02:25:55;17;16;
69123;PMS5003;56232;53.384;-2.732;2022-07-09T02:28:21;15;13;
69123;PMS5003;56232;53.384;-2.732;2022-07-09T02:30:46;14;11;
69123;PMS5003;56232;53.384;-2.732;2022-07-09T02:33:12;11;11;
69123;PMS5003;56232;53.384;-2.732;2022-07-09T02:35:37;11;11;
69123;PMS5003;56232;53.384;-2.732;2022-07-09T02:38:03;9;9;
69123;PMS5003;56232;53.384;-2.732;2022-07-09T02:40:28;8;8;
69123;PMS5003;56232;53.384;-2.732;2022-07-09T02:42:54;10;9;
69123;PMS5003;56232;53.384;-2.732;2022-07-09T02:45:19;10;9;
69123;PMS5003;56232;53.384;-2.732;2022-07-09T02:47:45;7;7;
69123;PMS5003;56232;53.384;-2.732;2022-07-09T02:50:10;8;8;
69123;PMS5003;56232;53.384;-2.732;2022-07-09T02:52:36;5;5;
69123;PMS5003;56232;53.384;-2.732;2022-07-09T02:55:01;5;5;
69123;PMS5003;56232;53.384;-2.732;2022-07-09T02:57:27;7;7;
69123;PMS5003;56232;53.384;-2.732;2022-07-09T02:59:52;5;5;
69123;PMS5003;56232;53.384;-2.732;2022-07-09T03:02:18;5;5;
69123;PMS5003;56232;53.384;-2.732;2022-07-09T03:04:44;5;5;
69123;PMS5003;56232;53.384;-2.732;2022-07-09T03:07:09;5;5;
69123;PMS5003;56232;53.384;-2.732;2022-07-09T03:09:35;5;5;
69123;PMS5003;56232;53.384;-2.732;2022-07-09T03:12:00;1;1;
69123;PMS5003;56232;53.384;-2.732;2022-07-09T03:14:26;1;1;
69123;PMS5003;56232;53.384;-2.732;2022-07-09T03:16:52;2;2;
69123;PMS5003;56232;53.384;-2.732;2022-07-09T03:19:17;1;1;
69123;PMS5003;56232;53.384;-2.732;2022-07-09T03:21:43;1;1;
69123;PMS5003;56232;53.384;-2.732;2022-07-09T03:24:08;1;1;
69123;PMS5003;56232;53.384;-2.732;2022-07-09T03:26:34;1;1;
69123;PMS5003;56232;53.384;-2.732;2022-07-09T03:29:00;1;1;
69123;PMS5003;56232;53.384;-2.732;2022-07-09T03:31:25;1;1;
69123;PMS5003;56232;53.384;-2.732;2022-07-09T03:33:51;1;1;
69123;PMS5003;56232;53.384;-2.732;2022-07-09T03:36:16;1;1;
69123;PMS5003;56232;53.384;-2.732;2022-07-09T03:38:42;2;2;
69123;PMS5003;56232;53.384;-2.732;2022-07-09T03:41:08;2;2;
69123;PMS5003;56232;53.384;-2.732;2022-07-09T03:43:33;0;0;
69123;PMS5003;56232;53.384;-2.732;2022-07-09T03:45:59;1;1;
69123;PMS5003;56232;53.384;-2.732;2022-07-09T03:48:25;0;0;
69123;PMS5003;56232;53.384;-2.732;2022-07-09T03:50:50;1;1;
69123;PMS5003;56232;53.384;-2.732;2022-07-09T03:53:16;0;0;
69123;PMS5003;56232;53.384;-2.732;2022-07-09T03:55:41;1;1;
69123;PMS5003;56232;53.384;-2.732;2022-07-09T03:58:07;1;1;
69123;PMS5003;56232;53.384;-2.732;2022-07-09T04:00:33;0;0;
69123;PMS5003;56232;53.384;-2.732;2022-07-09T04:02:58;0;0;
69123;PMS5003;56232;53.384;-2.732;2022-07-09T04:05:24;0;0;
69123;PMS5003;56232;53.384;-2.732;2022-07-09T04:07:50;0;0;
69123;PMS5003;56232;53.384;-2.732;2022-07-09T04:10:15;0;0;
69123;PMS5003;56232;53.384;-2.732;2022-07-09T04:12:41;0;0;
69123;PMS5003;56232;53.384;-2.732;2022-07-09T04:15:06;1;0;
69123;PMS5003;56232;53.384;-2.732;2022-07-09T04:17:32;1;0;
69123;PMS5003;56232;53.384;-2.732;2022-07-09T04:19:57;0;0;
69123;PMS5003;56232;53.384;-2.732;2022-07-09T04:22:23;1;0;
69123;PMS5003;56232;53.384;-2.732;2022-07-09T04:24:49;0;0;
69123;PMS5003;56232;53.384;-2.732;2022-07-09T04:27:14;0;0;
69123;PMS5003;56232;53.384;-2.732;2022-07-09T04:29:40;0;0;
69123;PMS5003;56232;53.384;-2.732;2022-07-09T04:32:06;0;0;
69123;PMS5003;56232;53.384;-2.732;2022-07-09T04:34:31;0;0;
69123;PMS5003;56232;53.384;-2.732;2022-07-09T04:36:57;0;0;
69123;PMS5003;56232;53.384;-2.732;2022-07-09T04:39:22;0;0;
69123;PMS5003;56232;53.384;-2.732;2022-07-09T04:41:48;0;0;
69123;PMS5003;56232;53.384;-2.732;2022-07-09T04:44:14;1;0;
69123;PMS5003;56232;53.384;-2.732;2022-07-09T04:46:39;1;1;
69123;PMS5003;56232;53.384;-2.732;2022-07-09T04:49:05;0;0;
69123;PMS5003;56232;53.384;-2.732;2022-07-09T04:51:31;1;1;
69123;PMS5003;56232;53.384;-2.732;2022-07-09T04:53:56;2;2;
69123;PMS5003;56232;53.384;-2.732;2022-07-09T04:56:22;2;2;
69123;PMS5003;56232;53.384;-2.732;2022-07-09T04:58:48;2;1;
69123;PMS5003;56232;53.384;-2.732;2022-07-09T05:01:13;2;2;
69123;PMS5003;56232;53.384;-2.732;2022-07-09T05:03:38;2;1;
69123;PMS5003;56232;53.384;-2.732;2022-07-09T05:06:04;1;1;
69123;PMS5003;56232;53.384;-2.732;2022-07-09T05:08:30;1;1;
69123;PMS5003;56232;53.384;-2.732;2022-07-09T05:10:55;2;2;
69123;PMS5003;56232;53.384;-2.732;2022-07-09T05:13:21;1;1;
69123;PMS5003;56232;53.384;-2.732;2022-07-09T05:15:47;3;3;
69123;PMS5003;56232;53.384;-2.732;2022-07-09T05:18:12;1;1;
69123;PMS5003;56232;53.384;-2.732;2022-07-09T05:20:38;1;1;
69123;PMS5003;56232;53.384;-2.732;2022-07-09T05:23:03;3;2;
69123;PMS5003;56232;53.384;-2.732;2022-07-09T05:25:29;1;1;
69123;PMS5003;56232;53.384;-2.732;2022-07-09T05:27:55;2;2;
69123;PMS5003;56232;53.384;-2.732;2022-07-09T05:30:20;1;1;
69123;PMS5003;56232;53.384;-2.732;2022-07-09T05:32:46;1;0;
69123;PMS5003;56232;53.384;-2.732;2022-07-09T05:35:12;3;3;
69123;PMS5003;56232;53.384;-2.732;2022-07-09T05:37:41;0;0;
69123;PMS5003;56232;53.384;-2.732;2022-07-09T05:40:03;2;2;
69123;PMS5003;56232;53.384;-2.732;2022-07-09T05:42:28;1;1;
69123;PMS5003;56232;53.384;-2.732;2022-07-09T05:44:54;2;1;
69123;PMS5003;56232;53.384;-2.732;2022-07-09T05:47:20;2;2;
69123;PMS5003;56232;53.384;-2.732;2022-07-09T05:49:45;2;1;
69123;PMS5003;56232;53.384;-2.732;2022-07-09T05:52:11;2;2;
69123;PMS5003;56232;53.384;-2.732;2022-07-09T05:54:36;0;0;
69123;PMS5003;56232;53.384;-2.732;2022-07-09T05:57:02;0;0;
69123;PMS5003;56232;53.384;-2.732;2022-07-09T05:59:28;1;0;
69123;PMS5003;56232;53.384;-2.732;2022-07-09T06:01:53;0;0;
69123;PMS5003;56232;53.384;-2.732;2022-07-09T06:04:19;1;1;
69123;PMS5003;56232;53.384;-2.732;2022-07-09T06:06:44;1;1;
69123;PMS5003;56232;53.384;-2.732;2022-07-09T06:09:10;2;2;
69123;PMS5003;56232;53.384;-2.732;2022-07-09T06:11:36;0;0;
69123;PMS5003;56232;53.384;-2.732;2022-07-09T06:14:01;1;1;
69123;PMS5003;56232;53.384;-2.732;2022-07-09T06:16:28;1;0;
69123;PMS5003;56232;53.384;-2.732;2022-07-09T06:18:53;1;1;
69123;PMS5003;56232;53.384;-2.732;2022-07-09T06:21:18;1;0;
69123;PMS5003;56232;53.384;-2.732;2022-07-09T06:23:44;1;1;
69123;PMS5003;56232;53.384;-2.732;2022-07-09T06:26:09;0;0;
69123;PMS5003;56232;53.384;-2.732;2022-07-09T06:28:35;2;1;
69123;PMS5003;56232;53.384;-2.732;2022-07-09T06:31:00;2;2;
69123;PMS5003;56232;53.384;-2.732;2022-07-09T06:33:26;0;0;
69123;PMS5003;56232;53.384;-2.732;2022-07-09T06:35:51;0;0;
69123;PMS5003;56232;53.384;-2.732;2022-07-09T06:38:16;1;1;
69123;PMS5003;56232;53.384;-2.732;2022-07-09T06:40:42;1;1;
69123;PMS5003;56232;53.384;-2.732;2022-07-09T06:43:08;1;1;
69123;PMS5003;56232;53.384;-2.732;2022-07-09T06:45:33;0;0;
69123;PMS5003;56232;53.384;-2.732;2022-07-09T06:47:59;0;0;
69123;PMS5003;56232;53.384;-2.732;2022-07-09T06:50:24;1;1;
69123;PMS5003;56232;53.384;-2.732;2022-07-09T06:52:50;1;1;
69123;PMS5003;56232;53.384;-2.732;2022-07-09T06:55:15;1;1;
69123;PMS5003;56232;53.384;-2.732;2022-07-09T06:57:41;1;1;
69123;PMS5003;56232;53.384;-2.732;2022-07-09T07:00:07;0;0;
69123;PMS5003;56232;53.384;-2.732;2022-07-09T07:02:32;1;1;
69123;PMS5003;56232;53.384;-2.732;2022-07-09T07:04:57;0;0;
69123;PMS5003;56232;53.384;-2.732;2022-07-09T07:07:23;0;0;
69123;PMS5003;56232;53.384;-2.732;2022-07-09T07:09:48;1;1;
69123;PMS5003;56232;53.384;-2.732;2022-07-09T07:12:14;2;2;
69123;PMS5003;56232;53.384;-2.732;2022-07-09T07:14:44;0;0;
69123;PMS5003;56232;53.384;-2.732;2022-07-09T07:17:05;1;1;
69123;PMS5003;56232;53.384;-2.732;2022-07-09T07:19:30;1;1;
69123;PMS5003;56232;53.384;-2.732;2022-07-09T07:21:56;1;1;
69123;PMS5003;56232;53.384;-2.732;2022-07-09T07:24:21;2;2;
69123;PMS5003;56232;53.384;-2.732;2022-07-09T07:26:47;1;1;
69123;PMS5003;56232;53.384;-2.732;2022-07-09T07:29:12;1;1;
69123;PMS5003;56232;53.384;-2.732;2022-07-09T07:31:38;2;2;
69123;PMS5003;56232;53.384;-2.732;2022-07-09T07:34:03;2;2;
69123;PMS5003;56232;53.384;-2.732;2022-07-09T07:36:29;2;2;
69123;PMS5003;56232;53.384;-2.732;2022-07-09T07:38:54;2;2;
69123;PMS5003;56232;53.384;-2.732;2022-07-09T07:41:20;1;1;
69123;PMS5003;56232;53.384;-2.732;2022-07-09T07:43:46;2;2;
69123;PMS5003;56232;53.384;-2.732;2022-07-09T07:46:11;1;1;
69123;PMS5003;56232;53.384;-2.732;2022-07-09T07:48:37;2;1;
69123;PMS5003;56232;53.384;-2.732;2022-07-09T07:51:02;0;0;
69123;PMS5003;56232;53.384;-2.732;2022-07-09T07:53:29;1;1;
69123;PMS5003;56232;53.384;-2.732;2022-07-09T07:55:53;1;1;
69123;PMS5003;56232;53.384;-2.732;2022-07-09T07:58:19;1;1;
69123;PMS5003;56232;53.384;-2.732;2022-07-09T08:00:44;0;0;
69123;PMS5003;56232;53.384;-2.732;2022-07-09T08:03:10;0;0;
69123;PMS5003;56232;53.384;-2.732;2022-07-09T08:05:35;1;1;
69123;PMS5003;56232;53.384;-2.732;2022-07-09T08:08:01;1;0;
69123;PMS5003;56232;53.384;-2.732;2022-07-09T08:10:27;2;1;
69123;PMS5003;56232;53.384;-2.732;2022-07-09T08:12:52;1;1;
69123;PMS5003;56232;53.384;-2.732;2022-07-09T08:15:17;0;0;
69123;PMS5003;56232;53.384;-2.732;2022-07-09T08:17:57;1;1;
69123;PMS5003;56232;53.384;-2.732;2022-07-09T08:20:09;1;0;
69123;PMS5003;56232;53.384;-2.732;2022-07-09T08:22:34;0;0;
69123;PMS5003;56232;53.384;-2.732;2022-07-09T08:24:59;1;1;
69123;PMS5003;56232;53.384;-2.732;2022-07-09T08:27:25;0;0;
69123;PMS5003;56232;53.384;-2.732;2022-07-09T08:29:50;1;1;
69123;PMS5003;56232;53.384;-2.732;2022-07-09T08:32:16;1;1;
69123;PMS5003;56232;53.384;-2.732;2022-07-09T08:34:41;0;0;
69123;PMS5003;56232;53.384;-2.732;2022-07-09T08:37:07;1;1;
69123;PMS5003;56232;53.384;-2.732;2022-07-09T08:39:33;0;0;
69123;PMS5003;56232;53.384;-2.732;2022-07-09T08:41:58;0;0;
69123;PMS5003;56232;53.384;-2.732;2022-07-09T08:44:24;1;1;
69123;PMS5003;56232;53.384;-2.732;2022-07-09T08:46:49;0;0;
69123;PMS5003;56232;53.384;-2.732;2022-07-09T08:49:14;0;0;
69123;PMS5003;56232;53.384;-2.732;2022-07-09T08:51:45;0;0;
69123;PMS5003;56232;53.384;-2.732;2022-07-09T08:54:05;2;2;
69123;PMS5003;56232;53.384;-2.732;2022-07-09T08:56:31;0;0;
69123;PMS5003;56232;53.384;-2.732;2022-07-09T08:58:56;0;0;
69123;PMS5003;56232;53.384;-2.732;2022-07-09T09:01:22;1;0;
69123;PMS5003;56232;53.384;-2.732;2022-07-09T09:03:47;0;0;
69123;PMS5003;56232;53.384;-2.732;2022-07-09T09:06:13;0;0;
69123;PMS5003;56232;53.384;-2.732;2022-07-09T09:08:39;0;0;
69123;PMS5003;56232;53.384;-2.732;2022-07-09T09:11:04;1;1;
69123;PMS5003;56232;53.384;-2.732;2022-07-09T09:13:30;0;0;
69123;PMS5003;56232;53.384;-2.732;2022-07-09T09:18:22;0;0;
69123;PMS5003;56232;53.384;-2.732;2022-07-09T09:20:46;0;0;
69123;PMS5003;56232;53.384;-2.732;2022-07-09T09:23:15;0;0;
69123;PMS5003;56232;53.384;-2.732;2022-07-09T09:25:37;2;1;
69123;PMS5003;56232;53.384;-2.732;2022-07-09T09:28:03;0;0;
69123;PMS5003;56232;53.384;-2.732;2022-07-09T09:30:29;0;0;
69123;PMS5003;56232;53.384;-2.732;2022-07-09T09:32:54;0;0;
69123;PMS5003;56232;53.384;-2.732;2022-07-09T09:35:19;0;0;
69123;PMS5003;56232;53.384;-2.732;2022-07-09T09:37:45;1;1;
69123;PMS5003;56232;53.384;-2.732;2022-07-09T09:40:11;0;0;
69123;PMS5003;56232;53.384;-2.732;2022-07-09T09:42:36;0;0;
69123;PMS5003;56232;53.384;-2.732;2022-07-09T09:45:01;0;0;
69123;PMS5003;56232;53.384;-2.732;2022-07-09T09:47:27;1;1;
69123;PMS5003;56232;53.384;-2.732;2022-07-09T09:49:52;1;1;
69123;PMS5003;56232;53.384;-2.732;2022-07-09T09:52:19;1;1;
69123;PMS5003;56232;53.384;-2.732;2022-07-09T09:54:43;2;1;
69123;PMS5003;56232;53.384;-2.732;2022-07-09T09:57:09;2;1;
69123;PMS5003;56232;53.384;-2.732;2022-07-09T09:59:35;1;1;
69123;PMS5003;56232;53.384;-2.732;2022-07-09T10:02:00;0;0;
69123;PMS5003;56232;53.384;-2.732;2022-07-09T10:04:26;1;0;
69123;PMS5003;56232;53.384;-2.732;2022-07-09T10:06:53;2;1;
69123;PMS5003;56232;53.384;-2.732;2022-07-09T10:09:17;2;1;
69123;PMS5003;56232;53.384;-2.732;2022-07-09T10:11:42;0;0;
69123;PMS5003;56232;53.384;-2.732;2022-07-09T10:14:13;2;2;
69123;PMS5003;56232;53.384;-2.732;2022-07-09T10:16:34;0;0;
69123;PMS5003;56232;53.384;-2.732;2022-07-09T10:18:59;0;0;
69123;PMS5003;56232;53.384;-2.732;2022-07-09T10:23:50;2;2;
69123;PMS5003;56232;53.384;-2.732;2022-07-09T10:26:15;1;1;
69123;PMS5003;56232;53.384;-2.732;2022-07-09T10:28:41;0;0;
69123;PMS5003;56232;53.384;-2.732;2022-07-09T10:31:06;2;1;
69123;PMS5003;56232;53.384;-2.732;2022-07-09T10:33:32;0;0;
69123;PMS5003;56232;53.384;-2.732;2022-07-09T10:35:57;0;0;
69123;PMS5003;56232;53.384;-2.732;2022-07-09T10:38:33;2;2;
69123;PMS5003;56232;53.384;-2.732;2022-07-09T10:40:56;1;1;
69123;PMS5003;56232;53.384;-2.732;2022-07-09T10:43:14;1;1;
69123;PMS5003;56232;53.384;-2.732;2022-07-09T10:45:40;1;0;
69123;PMS5003;56232;53.384;-2.732;2022-07-09T10:48:05;1;1;
69123;PMS5003;56232;53.384;-2.732;2022-07-09T10:50:31;2;1;
69123;PMS5003;56232;53.384;-2.732;2022-07-09T10:52:57;1;1;
69123;PMS5003;56232;53.384;-2.732;2022-07-09T10:55:22;1;1;
69123;PMS5003;56232;53.384;-2.732;2022-07-09T10:57:47;1;1;
69123;PMS5003;56232;53.384;-2.732;2022-07-09T11:00:14;3;1;
69123;PMS5003;56232;53.384;-2.732;2022-07-09T11:02:38;2;1;
69123;PMS5003;56232;53.384;-2.732;2022-07-09T11:05:04;1;1;
69123;PMS5003;56232;53.384;-2.732;2022-07-09T11:07:29;2;2;
69123;PMS5003;56232;53.384;-2.732;2022-07-09T11:09:55;1;1;
69123;PMS5003;56232;53.384;-2.732;2022-07-09T11:12:21;2;1;
69123;PMS5003;56232;53.384;-2.732;2022-07-09T11:14:46;1;1;
69123;PMS5003;56232;53.384;-2.732;2022-07-09T11:17:14;1;1;
69123;PMS5003;56232;53.384;-2.732;2022-07-09T11:19:37;1;1;
69123;PMS5003;56232;53.384;-2.732;2022-07-09T11:22:02;1;1;
69123;PMS5003;56232;53.384;-2.732;2022-07-09T11:24:28;2;2;
69123;PMS5003;56232;53.384;-2.732;2022-07-09T11:26:53;2;2;
69123;PMS5003;56232;53.384;-2.732;2022-07-09T11:29:19;2;2;
69123;PMS5003;56232;53.384;-2.732;2022-07-09T11:31:46;2;2;
69123;PMS5003;56232;53.384;-2.732;2022-07-09T11:34:10;1;1;
69123;PMS5003;56232;53.384;-2.732;2022-07-09T11:36:36;2;2;
69123;PMS5003;56232;53.384;-2.732;2022-07-09T11:39:01;2;2;
69123;PMS5003;56232;53.384;-2.732;2022-07-09T11:41:38;3;2;
69123;PMS5003;56232;53.384;-2.732;2022-07-09T11:43:52;2;2;
69123;PMS5003;56232;53.384;-2.732;2022-07-09T11:46:18;2;2;
69123;PMS5003;56232;53.384;-2.732;2022-07-09T11:48:48;2;2;
69123;PMS5003;56232;53.384;-2.732;2022-07-09T11:51:09;2;2;
69123;PMS5003;56232;53.384;-2.732;2022-07-09T11:53:34;1;1;
69123;PMS5003;56232;53.384;-2.732;2022-07-09T11:56:00;1;1;
69123;PMS5003;56232;53.384;-2.732;2022-07-09T11:58:26;2;1;
69123;PMS5003;56232;53.384;-2.732;2022-07-09T12:00:51;3;3;
69123;PMS5003;56232;53.384;-2.732;2022-07-09T12:05:42;2;2;
69123;PMS5003;56232;53.384;-2.732;2022-07-09T12:08:08;3;2;
69123;PMS5003;56232;53.384;-2.732;2022-07-09T12:10:34;2;2;
69123;PMS5003;56232;53.384;-2.732;2022-07-09T12:12:59;3;3;
69123;PMS5003;56232;53.384;-2.732;2022-07-09T12:15:24;4;4;
69123;PMS5003;56232;53.384;-2.732;2022-07-09T12:17:50;2;2;
69123;PMS5003;56232;53.384;-2.732;2022-07-09T12:20:15;2;2;
69123;PMS5003;56232;53.384;-2.732;2022-07-09T12:22:41;1;1;
69123;PMS5003;56232;53.384;-2.732;2022-07-09T12:25:07;2;2;
69123;PMS5003;56232;53.384;-2.732;2022-07-09T12:27:32;2;2;
69123;PMS5003;56232;53.384;-2.732;2022-07-09T12:29:58;4;2;
69123;PMS5003;56232;53.384;-2.732;2022-07-09T12:32:23;1;1;
69123;PMS5003;56232;53.384;-2.732;2022-07-09T12:34:49;2;2;
69123;PMS5003;56232;53.384;-2.732;2022-07-09T12:37:14;2;2;
69123;PMS5003;56232;53.384;-2.732;2022-07-09T12:39:40;1;1;
69123;PMS5003;56232;53.384;-2.732;2022-07-09T12:42:05;2;2;
69123;PMS5003;56232;53.384;-2.732;2022-07-09T12:44:31;3;3;
69123;PMS5003;56232;53.384;-2.732;2022-07-09T12:46:56;3;2;
69123;PMS5003;56232;53.384;-2.732;2022-07-09T12:49:22;2;2;
69123;PMS5003;56232;53.384;-2.732;2022-07-09T12:51:47;3;3;
69123;PMS5003;56232;53.384;-2.732;2022-07-09T12:54:13;4;3;
69123;PMS5003;56232;53.384;-2.732;2022-07-09T12:56:39;2;2;
69123;PMS5003;56232;53.384;-2.732;2022-07-09T12:59:04;3;2;
69123;PMS5003;56232;53.384;-2.732;2022-07-09T13:01:30;3;2;
69123;PMS5003;56232;53.384;-2.732;2022-07-09T13:03:55;3;3;
69123;PMS5003;56232;53.384;-2.732;2022-07-09T13:06:21;2;2;
69123;PMS5003;56232;53.384;-2.732;2022-07-09T13:08:46;2;2;
69123;PMS5003;56232;53.384;-2.732;2022-07-09T13:11:12;3;3;
69123;PMS5003;56232;53.384;-2.732;2022-07-09T13:13:37;3;3;
69123;PMS5003;56232;53.384;-2.732;2022-07-09T13:16:03;2;2;
69123;PMS5003;56232;53.384;-2.732;2022-07-09T13:18:29;1;1;
69123;PMS5003;56232;53.384;-2.732;2022-07-09T13:20:54;3;2;
69123;PMS5003;56232;53.384;-2.732;2022-07-09T13:23:19;3;3;
69123;PMS5003;56232;53.384;-2.732;2022-07-09T13:25:45;3;3;
69123;PMS5003;56232;53.384;-2.732;2022-07-09T13:28:10;2;2;
69123;PMS5003;56232;53.384;-2.732;2022-07-09T13:30:36;2;2;
69123;PMS5003;56232;53.384;-2.732;2022-07-09T13:33:02;2;2;
69123;PMS5003;56232;53.384;-2.732;2022-07-09T13:35:28;3;3;
69123;PMS5003;56232;53.384;-2.732;2022-07-09T13:37:53;2;2;
69123;PMS5003;56232;53.384;-2.732;2022-07-09T13:40:18;1;1;
69123;PMS5003;56232;53.384;-2.732;2022-07-09T13:42:44;3;3;
69123;PMS5003;56232;53.384;-2.732;2022-07-09T13:45:10;2;2;
69123;PMS5003;56232;53.384;-2.732;2022-07-09T13:47:35;1;1;
69123;PMS5003;56232;53.384;-2.732;2022-07-09T13:50:00;1;1;
69123;PMS5003;56232;53.384;-2.732;2022-07-09T13:52:26;1;1;
69123;PMS5003;56232;53.384;-2.732;2022-07-09T13:54:51;1;1;
69123;PMS5003;56232;53.384;-2.732;2022-07-09T13:57:17;2;1;
69123;PMS5003;56232;53.384;-2.732;2022-07-09T13:59:43;2;2;
69123;PMS5003;56232;53.384;-2.732;2022-07-09T14:02:08;1;1;
69123;PMS5003;56232;53.384;-2.732;2022-07-09T14:04:34;1;1;
69123;PMS5003;56232;53.384;-2.732;2022-07-09T14:06:59;2;2;
69123;PMS5003;56232;53.384;-2.732;2022-07-09T14:09:25;2;2;
69123;PMS5003;56232;53.384;-2.732;2022-07-09T14:11:50;2;2;
69123;PMS5003;56232;53.384;-2.732;2022-07-09T14:14:16;2;1;
69123;PMS5003;56232;53.384;-2.732;2022-07-09T14:16:41;1;1;
69123;PMS5003;56232;53.384;-2.732;2022-07-09T14:19:07;2;1;
69123;PMS5003;56232;53.384;-2.732;2022-07-09T14:21:33;3;3;
69123;PMS5003;56232;53.384;-2.732;2022-07-09T14:23:58;3;2;
69123;PMS5003;56232;53.384;-2.732;2022-07-09T14:26:24;1;0;
69123;PMS5003;56232;53.384;-2.732;2022-07-09T14:28:49;3;2;
69123;PMS5003;56232;53.384;-2.732;2022-07-09T14:31:15;2;2;
69123;PMS5003;56232;53.384;-2.732;2022-07-09T14:33:40;2;2;
69123;PMS5003;56232;53.384;-2.732;2022-07-09T14:36:06;1;1;
69123;PMS5003;56232;53.384;-2.732;2022-07-09T14:38:31;1;1;
69123;PMS5003;56232;53.384;-2.732;2022-07-09T14:40:57;1;1;
69123;PMS5003;56232;53.384;-2.732;2022-07-09T14:43:22;2;1;
69123;PMS5003;56232;53.384;-2.732;2022-07-09T14:45:48;2;2;
69123;PMS5003;56232;53.384;-2.732;2022-07-09T14:48:14;1;1;
69123;PMS5003;56232;53.384;-2.732;2022-07-09T14:50:39;3;3;
69123;PMS5003;56232;53.384;-2.732;2022-07-09T14:53:05;2;2;
69123;PMS5003;56232;53.384;-2.732;2022-07-09T14:55:30;1;1;
69123;PMS5003;56232;53.384;-2.732;2022-07-09T14:57:56;1;1;
69123;PMS5003;56232;53.384;-2.732;2022-07-09T15:00:21;2;2;
69123;PMS5003;56232;53.384;-2.732;2022-07-09T15:02:47;1;1;
69123;PMS5003;56232;53.384;-2.732;2022-07-09T15:05:12;0;0;
69123;PMS5003;56232;53.384;-2.732;2022-07-09T15:07:38;2;2;
69123;PMS5003;56232;53.384;-2.732;2022-07-09T15:10:04;1;1;
69123;PMS5003;56232;53.384;-2.732;2022-07-09T15:12:29;2;2;
69123;PMS5003;56232;53.384;-2.732;2022-07-09T15:14:55;2;1;
69123;PMS5003;56232;53.384;-2.732;2022-07-09T15:17:20;3;2;
69123;PMS5003;56232;53.384;-2.732;2022-07-09T15:19:46;1;1;
69123;PMS5003;56232;53.384;-2.732;2022-07-09T15:22:11;1;0;
69123;PMS5003;56232;53.384;-2.732;2022-07-09T15:24:42;2;2;
69123;PMS5003;56232;53.384;-2.732;2022-07-09T15:27:02;2;1;
69123;PMS5003;56232;53.384;-2.732;2022-07-09T15:29:28;0;0;
69123;PMS5003;56232;53.384;-2.732;2022-07-09T15:31:53;1;1;
69123;PMS5003;56232;53.384;-2.732;2022-07-09T15:34:19;2;2;
69123;PMS5003;56232;53.384;-2.732;2022-07-09T15:36:44;1;1;
69123;PMS5003;56232;53.384;-2.732;2022-07-09T15:39:10;3;2;
69123;PMS5003;56232;53.384;-2.732;2022-07-09T15:41:35;1;1;
69123;PMS5003;56232;53.384;-2.732;2022-07-09T15:44:01;0;0;
69123;PMS5003;56232;53.384;-2.732;2022-07-09T15:46:27;0;0;
69123;PMS5003;56232;53.384;-2.732;2022-07-09T15:48:52;0;0;
69123;PMS5003;56232;53.384;-2.732;2022-07-09T15:51:17;2;2;
69123;PMS5003;56232;53.384;-2.732;2022-07-09T15:53:43;1;1;
69123;PMS5003;56232;53.384;-2.732;2022-07-09T15:56:08;1;1;
69123;PMS5003;56232;53.384;-2.732;2022-07-09T15:58:34;1;1;
69123;PMS5003;56232;53.384;-2.732;2022-07-09T16:01:00;1;1;
69123;PMS5003;56232;53.384;-2.732;2022-07-09T16:03:25;2;1;
69123;PMS5003;56232;53.384;-2.732;2022-07-09T16:05:51;3;3;
69123;PMS5003;56232;53.384;-2.732;2022-07-09T16:08:16;1;1;
69123;PMS5003;56232;53.384;-2.732;2022-07-09T16:10:42;3;3;
69123;PMS5003;56232;53.384;-2.732;2022-07-09T16:13:07;2;2;
69123;PMS5003;56232;53.384;-2.732;2022-07-09T16:15:33;2;2;
69123;PMS5003;56232;53.384;-2.732;2022-07-09T16:17:58;1;1;
69123;PMS5003;56232;53.384;-2.732;2022-07-09T16:20:24;1;1;
69123;PMS5003;56232;53.384;-2.732;2022-07-09T16:22:49;3;2;
69123;PMS5003;56232;53.384;-2.732;2022-07-09T16:25:15;2;2;